Time;durP1;ratioP1;P1;durP2;ratioP2;P2;SDS_P1;SDS_P2;PMS_P1;PMS_P2;Temp;Humidity;BMP_temperature;BMP_pressure;BME280_temperature;BME280_humidity;BME280_pressure;Samples;Min_cycle;Max_cycle;Signal;HPM_P1;HPM_P2
2022/06/25 00:01:12;;;;;;;2.75;2.55;;;17.10;99.90;;;;;;4985113;28;20234;-62
2022/06/25 00:03:39;;;;;;;2.55;2.35;;;17.10;99.90;;;;;;4989690;28;20207;-62
2022/06/25 00:06:06;;;;;;;2.60;2.50;;;17.20;99.90;;;;;;4992826;28;20267;-62
2022/06/25 00:08:33;;;;;;;2.85;2.60;;;17.10;99.90;;;;;;4993213;28;20175;-62
2022/06/25 00:10:59;;;;;;;3.47;2.40;;;17.20;99.90;;;;;;4991016;28;20203;-62
2022/06/25 00:13:24;;;;;;;2.30;2.03;;;17.20;99.90;;;;;;4992625;28;20668;-62
2022/06/25 00:15:50;;;;;;;5.77;2.33;;;17.00;99.90;;;;;;4991394;28;20210;-62
2022/06/25 00:18:16;;;;;;;2.70;2.57;;;17.20;99.90;;;;;;4988098;28;20199;-62
2022/06/25 00:20:43;;;;;;;2.72;2.50;;;17.00;99.90;;;;;;4990557;28;20473;-62
2022/06/25 00:23:09;;;;;;;2.60;2.40;;;17.00;99.90;;;;;;4987633;28;20323;-62
2022/06/25 00:25:34;;;;;;;2.60;2.40;;;16.90;99.90;;;;;;4993202;28;20299;-62
2022/06/25 00:28:00;;;;;;;3.37;2.43;;;17.10;99.90;;;;;;4990322;28;20598;-62
2022/06/25 00:30:26;;;;;;;2.73;2.53;;;16.90;99.90;;;;;;4992113;28;20765;-62
2022/06/25 00:32:52;;;;;;;2.75;2.40;;;16.80;99.90;;;;;;4988953;28;20479;-62
2022/06/25 00:35:18;;;;;;;2.63;2.30;;;17.20;99.90;;;;;;4988085;28;20223;-61
2022/06/25 00:37:44;;;;;;;3.00;2.80;;;17.00;99.90;;;;;;4991039;28;20197;-61
2022/06/25 00:40:11;;;;;;;3.30;2.53;;;16.80;99.90;;;;;;4992151;28;20494;-61
2022/06/25 00:42:36;;;;;;;3.00;2.80;;;16.80;99.90;;;;;;4990954;28;20221;-61
2022/06/25 00:45:03;;;;;;;3.73;3.43;;;16.80;99.90;;;;;;4993155;28;20847;-61
2022/06/25 00:47:29;;;;;;;3.17;2.90;;;16.70;99.90;;;;;;4989666;28;20597;-61
2022/06/25 00:49:54;;;;;;;2.60;2.40;;;16.90;99.90;;;;;;4984540;28;20203;-61
2022/06/25 00:52:23;;;;;;;2.87;2.67;;;16.90;99.90;;;;;;4990927;28;20653;-61
2022/06/25 00:55:04;;;;;;;2.53;2.33;;;16.70;99.90;;;;;;4991681;28;20180;-61
2022/06/25 00:57:34;;;;;;;3.65;2.25;;;16.60;99.90;;;;;;4990931;28;20191;-61
2022/06/25 01:00:06;;;;;;;2.70;2.50;;;16.60;99.90;;;;;;4984229;28;20188;-61
2022/06/25 01:02:32;;;;;;;3.42;2.63;;;16.20;99.90;;;;;;4983977;28;20290;-61
2022/06/25 01:04:57;;;;;;;3.80;2.90;;;16.60;99.90;;;;;;4991685;28;20812;-61
2022/06/25 01:07:23;;;;;;;3.93;2.90;;;16.40;99.90;;;;;;4990077;28;20602;-61
2022/06/25 01:09:50;;;;;;;3.27;2.97;;;16.50;99.90;;;;;;4992792;28;20176;-61
2022/06/25 01:12:16;;;;;;;3.00;2.80;;;16.60;99.90;;;;;;4990369;28;20446;-61
2022/06/25 01:14:42;;;;;;;2.88;2.67;;;16.60;99.90;;;;;;4988144;28;20192;-61
2022/06/25 01:17:09;;;;;;;2.93;2.77;;;16.50;99.90;;;;;;4988919;28;20191;-61
2022/06/25 01:19:36;;;;;;;3.15;2.95;;;16.40;99.90;;;;;;4989869;28;20263;-61
2022/06/25 01:22:06;;;;;;;3.60;2.60;;;16.40;99.90;;;;;;4985332;28;20688;-61
2022/06/25 01:24:32;;;;;;;3.95;2.75;;;16.30;99.90;;;;;;4992076;28;20689;-61
2022/06/25 01:26:58;;;;;;;2.85;2.65;;;16.30;99.90;;;;;;4990353;28;20183;-61
2022/06/25 01:29:24;;;;;;;2.80;2.60;;;16.30;99.90;;;;;;4990181;28;20680;-60
2022/06/25 01:31:51;;;;;;;4.63;2.72;;;16.30;99.90;;;;;;4986423;28;20501;-61
2022/06/25 01:34:17;;;;;;;3.08;2.65;;;16.50;99.90;;;;;;4984517;28;20649;-61
2022/06/25 01:36:43;;;;;;;2.83;2.63;;;16.50;99.90;;;;;;4991388;28;20188;-61
2022/06/25 01:39:08;;;;;;;3.00;2.80;;;16.30;99.90;;;;;;4984988;28;20192;-61
2022/06/25 01:41:34;;;;;;;2.90;2.40;;;16.30;99.90;;;;;;4984141;28;20211;-61
2022/06/25 01:43:59;;;;;;;3.70;2.30;;;16.40;99.90;;;;;;4991281;28;20620;-61
2022/06/25 01:46:25;;;;;;;3.00;2.70;;;16.30;99.90;;;;;;4991427;28;20227;-61
2022/06/25 01:48:51;;;;;;;4.80;2.83;;;16.20;99.90;;;;;;4988361;28;20201;-60
2022/06/25 01:51:17;;;;;;;2.90;2.60;;;16.30;99.90;;;;;;4985256;28;20215;-61
2022/06/25 01:53:43;;;;;;;4.97;2.35;;;16.10;99.90;;;;;;4992068;28;20222;-61
2022/06/25 01:56:09;;;;;;;4.20;2.60;;;16.20;99.90;;;;;;4991350;28;20653;-60
2022/06/25 01:58:35;;;;;;;2.57;2.37;;;16.10;99.90;;;;;;4987165;28;20530;-60
2022/06/25 02:01:01;;;;;;;3.53;2.60;;;16.00;99.90;;;;;;4984788;28;20658;-60
2022/06/25 02:03:26;;;;;;;2.57;2.37;;;16.10;99.90;;;;;;4986052;28;20914;-60
2022/06/25 02:05:58;;;;;;;2.57;2.40;;;16.20;99.90;;;;;;4992602;28;20426;-61
2022/06/25 02:08:30;;;;;;;2.15;2.05;;;15.90;99.90;;;;;;4990848;28;20218;-61
2022/06/25 02:10:57;;;;;;;2.90;2.63;;;16.00;99.90;;;;;;4988167;28;20735;-60
2022/06/25 02:13:23;;;;;;;2.80;2.60;;;16.10;99.90;;;;;;4988618;28;20755;-60
2022/06/25 02:15:49;;;;;;;2.90;2.60;;;16.00;99.90;;;;;;4990584;28;20194;-61
2022/06/25 02:18:15;;;;;;;3.25;2.95;;;15.90;99.90;;;;;;4987777;28;20225;-61
2022/06/25 02:20:42;;;;;;;3.63;2.17;;;16.20;99.90;;;;;;4990625;28;20247;-60
2022/06/25 02:23:09;;;;;;;3.50;2.80;;;16.00;99.90;;;;;;4990065;28;20199;-61
2022/06/25 02:25:34;;;;;;;2.50;2.40;;;16.00;99.90;;;;;;4984867;28;20239;-61
2022/06/25 02:28:00;;;;;;;2.70;2.60;;;15.80;99.90;;;;;;4988797;28;20191;-60
2022/06/25 02:30:26;;;;;;;4.70;2.67;;;15.90;99.90;;;;;;4990619;28;20240;-60
2022/06/25 02:32:52;;;;;;;2.60;2.40;;;16.00;99.90;;;;;;4981974;28;20562;-60
2022/06/25 02:35:17;;;;;;;2.60;2.33;;;15.90;99.90;;;;;;4989497;28;20661;-60
2022/06/25 02:37:43;;;;;;;2.70;2.50;;;16.00;99.90;;;;;;4990077;28;20188;-60
2022/06/25 02:40:09;;;;;;;4.00;2.50;;;15.90;99.90;;;;;;4983640;28;20211;-60
2022/06/25 02:42:39;;;;;;;2.30;2.20;;;15.80;99.90;;;;;;4988710;28;20219;-61
2022/06/25 02:45:06;;;;;;;3.25;2.50;;;15.70;99.90;;;;;;4990016;28;20218;-60
2022/06/25 02:47:33;;;;;;;5.38;2.90;;;15.80;99.90;;;;;;4991683;28;20203;-60
2022/06/25 02:49:59;;;;;;;3.42;2.72;;;15.80;99.90;;;;;;4994551;28;20187;-60
2022/06/25 02:52:25;;;;;;;3.78;2.55;;;15.60;99.90;;;;;;4992638;28;20662;-60
2022/06/25 02:54:51;;;;;;;2.65;2.45;;;15.60;99.90;;;;;;4994273;28;20219;-60
2022/06/25 03:00:03;;;;;;;2.60;2.50;;;15.60;99.90;;;;;;4992795;28;20269;-60
2022/06/25 03:02:29;;;;;;;3.83;2.80;;;15.40;99.90;;;;;;4986988;28;20208;-60
2022/06/25 03:04:54;;;;;;;3.00;2.80;;;15.40;99.90;;;;;;4994241;28;20538;-60
2022/06/25 03:07:20;;;;;;;3.93;2.70;;;15.50;99.90;;;;;;4994516;28;20657;-61
2022/06/25 03:09:46;;;;;;;2.70;2.50;;;15.50;99.90;;;;;;4993924;28;20179;-61
2022/06/25 03:12:12;;;;;;;3.30;3.00;;;15.50;99.90;;;;;;4989570;28;20538;-61
2022/06/25 03:14:38;;;;;;;2.72;2.53;;;15.40;99.90;;;;;;4994510;28;20184;-61
2022/06/25 03:17:04;;;;;;;2.92;2.72;;;15.30;99.90;;;;;;4988031;28;20226;-61
2022/06/25 03:19:30;;;;;;;3.00;2.80;;;15.50;99.90;;;;;;4991386;28;20717;-61
2022/06/25 03:21:56;;;;;;;2.80;2.60;;;15.40;99.90;;;;;;4988697;28;20311;-61
2022/06/25 03:24:21;;;;;;;2.80;2.60;;;15.40;99.90;;;;;;4992975;28;20183;-61
2022/06/25 03:26:47;;;;;;;2.93;2.73;;;15.60;99.90;;;;;;4990126;28;20500;-62
2022/06/25 03:29:13;;;;;;;3.53;2.93;;;15.30;99.90;;;;;;4993414;28;20285;-61
2022/06/25 03:31:39;;;;;;;4.60;2.87;;;15.60;99.90;;;;;;4989700;28;20235;-61
2022/06/25 03:34:05;;;;;;;2.75;2.55;;;15.30;99.90;;;;;;4990119;28;20533;-61
2022/06/25 03:36:32;;;;;;;2.88;2.67;;;15.50;99.90;;;;;;4993604;28;20660;-61
2022/06/25 03:38:57;;;;;;;3.30;3.00;;;15.40;99.90;;;;;;4992767;28;20180;-61
2022/06/25 03:41:32;;;;;;;2.70;2.50;;;15.40;99.90;;;;;;4985230;28;20223;-61
2022/06/25 03:43:58;;;;;;;2.63;2.50;;;15.40;99.90;;;;;;4986261;28;20211;-61
2022/06/25 03:46:24;;;;;;;2.80;2.60;;;15.60;99.90;;;;;;4993408;28;20665;-61
2022/06/25 03:48:50;;;;;;;3.07;2.87;;;15.40;99.90;;;;;;4990745;28;20195;-61
2022/06/25 03:51:15;;;;;;;3.10;2.90;;;15.30;99.90;;;;;;4993661;28;20204;-61
2022/06/25 03:53:41;;;;;;;2.27;2.17;;;15.30;99.90;;;;;;4993337;28;20673;-61
2022/06/25 03:56:07;;;;;;;3.30;3.00;;;15.40;99.90;;;;;;4991746;28;20672;-61
2022/06/25 03:58:33;;;;;;;2.53;2.33;;;15.40;99.90;;;;;;4995036;28;20244;-61
2022/06/25 04:00:58;;;;;;;2.20;2.10;;;15.50;99.90;;;;;;4986838;28;20474;-61
2022/06/25 04:03:24;;;;;;;2.10;2.00;;;15.40;99.90;;;;;;4990302;28;20284;-61
2022/06/25 04:05:50;;;;;;;3.07;2.77;;;15.40;99.90;;;;;;4993378;28;20757;-61
2022/06/25 04:08:16;;;;;;;2.40;2.30;;;15.50;99.90;;;;;;4992660;28;20199;-61
2022/06/25 04:10:42;;;;;;;2.80;2.60;;;16.10;99.90;;;;;;4990794;28;20274;-61
2022/06/25 04:13:08;;;;;;;2.28;2.17;;;15.50;99.90;;;;;;4988677;28;20563;-61
2022/06/25 04:15:35;;;;;;;3.47;3.17;;;15.70;99.90;;;;;;4984527;28;20176;-60
2022/06/25 04:18:01;;;;;;;3.65;2.80;;;15.60;99.90;;;;;;4983086;28;20726;-61
2022/06/25 04:20:27;;;;;;;2.75;2.55;;;15.60;99.90;;;;;;4988208;28;20242;-61
2022/06/25 04:22:53;;;;;;;2.80;2.60;;;15.60;99.90;;;;;;4989107;28;20253;-61
2022/06/25 04:25:19;;;;;;;2.33;2.13;;;15.80;99.90;;;;;;4992751;28;20198;-61
2022/06/25 04:30:29;;;;;;;2.60;2.30;;;15.60;99.90;;;;;;4987502;28;20215;-68
2022/06/25 04:32:55;;;;;;;3.97;2.50;;;15.60;99.90;;;;;;4985081;28;20678;-65
2022/06/25 04:35:21;;;;;;;2.80;2.60;;;15.80;99.90;;;;;;4992529;28;20196;-65
2022/06/25 04:37:47;;;;;;;2.83;2.40;;;15.80;99.90;;;;;;4985231;28;20860;-66
2022/06/25 04:40:13;;;;;;;3.13;2.63;;;15.80;99.90;;;;;;4988498;28;20469;-68
2022/06/25 04:42:39;;;;;;;3.10;2.50;;;16.20;99.90;;;;;;4985774;28;20250;-66
2022/06/25 04:45:05;;;;;;;2.72;2.53;;;16.20;99.90;;;;;;4989826;28;20202;-68
2022/06/25 04:47:31;;;;;;;3.13;2.50;;;15.90;99.90;;;;;;4992552;28;20211;-66
2022/06/25 04:49:56;;;;;;;2.20;2.10;;;16.20;99.90;;;;;;4987604;28;20200;-66
2022/06/25 04:52:22;;;;;;;2.40;2.23;;;16.30;99.90;;;;;;4986932;28;20205;-68
2022/06/25 04:54:48;;;;;;;2.53;2.03;;;16.50;99.90;;;;;;4984244;28;20199;-66
2022/06/25 04:57:14;;;;;;;4.70;2.30;;;16.60;99.90;;;;;;4991169;28;20195;-65
2022/06/25 04:59:39;;;;;;;2.10;2.00;;;16.90;99.90;;;;;;4989593;28;20261;-66
2022/06/25 05:02:05;;;;;;;2.40;2.20;;;16.90;99.90;;;;;;4985164;28;20473;-69
2022/06/25 05:04:31;;;;;;;2.90;2.40;;;17.00;99.90;;;;;;4987758;28;20278;-66
2022/06/25 05:06:58;;;;;;;2.20;2.10;;;16.80;99.90;;;;;;4989557;28;20263;-66
2022/06/25 05:09:25;;;;;;;2.42;2.33;;;17.40;99.90;;;;;;4979342;28;20259;-66
2022/06/25 05:11:51;;;;;;;5.25;2.42;;;17.00;99.90;;;;;;4992161;28;20233;-67
2022/06/25 05:14:16;;;;;;;2.33;2.23;;;17.00;99.90;;;;;;4992372;28;20199;-66
2022/06/25 05:16:44;;;;;;;3.13;1.90;;;17.20;99.90;;;;;;4989169;28;20180;-66
2022/06/25 05:19:10;;;;;;;2.33;2.10;;;17.40;99.90;;;;;;4985768;28;20465;-67
2022/06/25 05:21:36;;;;;;;2.20;2.10;;;17.40;99.90;;;;;;4990723;28;20230;-69
2022/06/25 05:24:02;;;;;;;2.42;2.22;;;17.50;99.90;;;;;;4987291;28;20303;-71
2022/06/25 05:26:28;;;;;;;1.97;1.87;;;17.50;99.90;;;;;;4986301;28;20271;-65
2022/06/25 05:28:54;;;;;;;2.33;2.15;;;17.50;99.90;;;;;;4991951;28;20435;-66
2022/06/25 05:31:20;;;;;;;2.63;1.80;;;17.30;99.90;;;;;;4982081;28;20305;-66
2022/06/25 05:33:45;;;;;;;2.20;2.00;;;17.80;99.90;;;;;;4989811;28;20234;-66
2022/06/25 05:36:11;;;;;;;2.10;1.93;;;17.90;99.90;;;;;;4989867;28;20213;-67
2022/06/25 05:38:37;;;;;;;2.20;2.00;;;18.00;99.90;;;;;;4991201;28;20641;-67
2022/06/25 05:41:08;;;;;;;3.77;2.10;;;18.00;99.90;;;;;;4986139;28;20636;-66
2022/06/25 05:43:37;;;;;;;1.70;1.60;;;18.20;99.90;;;;;;4992039;28;20592;-69
2022/06/25 05:46:03;;;;;;;2.75;1.90;;;18.30;99.90;;;;;;4984258;28;20217;-69
2022/06/25 05:48:29;;;;;;;2.37;2.17;;;18.80;99.90;;;;;;4984090;28;20638;-66
2022/06/25 05:50:55;;;;;;;1.75;1.65;;;18.50;99.90;;;;;;4988669;28;21003;-66
2022/06/25 05:53:21;;;;;;;2.10;1.90;;;18.60;99.90;;;;;;4986531;28;20207;-66
2022/06/25 05:55:46;;;;;;;2.30;2.10;;;18.70;99.90;;;;;;4990888;28;20465;-66
2022/06/25 05:58:12;;;;;;;4.33;1.60;;;18.80;99.90;;;;;;4990590;28;20635;-68
2022/06/25 06:00:38;;;;;;;1.77;1.67;;;18.90;99.90;;;;;;4991718;28;20208;-66
2022/06/25 06:03:05;;;;;;;2.05;1.90;;;19.20;99.90;;;;;;4983552;28;21028;-66
2022/06/25 06:05:31;;;;;;;2.35;1.95;;;19.30;99.90;;;;;;4991588;28;20180;-69
2022/06/25 06:07:56;;;;;;;3.05;1.90;;;19.30;99.90;;;;;;4984411;28;20230;-71
2022/06/25 06:10:22;;;;;;;1.67;1.57;;;19.40;99.90;;;;;;4984179;28;20207;-69
2022/06/25 06:12:48;;;;;;;1.60;1.50;;;19.40;99.90;;;;;;4988433;28;20664;-69
2022/06/25 06:15:13;;;;;;;4.03;3.30;;;19.60;99.90;;;;;;4990262;28;20218;-74
2022/06/25 06:17:39;;;;;;;1.80;1.70;;;19.50;99.90;;;;;;4983538;28;20210;-67
2022/06/25 06:20:06;;;;;;;2.93;1.90;;;19.60;99.90;;;;;;4987898;28;20215;-66
2022/06/25 06:22:32;;;;;;;2.08;1.60;;;19.70;99.90;;;;;;4989318;28;20219;-70
2022/06/25 06:24:57;;;;;;;1.83;1.73;;;19.80;99.90;;;;;;4982190;28;20556;-69
2022/06/25 06:27:23;;;;;;;1.60;1.50;;;19.90;99.90;;;;;;4988791;28;20198;-69
2022/06/25 06:29:49;;;;;;;1.80;1.70;;;20.00;99.90;;;;;;4986793;28;20665;-67
2022/06/25 06:32:14;;;;;;;4.03;2.00;;;20.10;99.90;;;;;;4983107;28;20183;-67
2022/06/25 06:34:41;;;;;;;3.60;2.10;;;20.20;99.90;;;;;;4984539;28;20485;-68
2022/06/25 06:37:06;;;;;;;2.72;1.55;;;20.20;99.90;;;;;;4988983;28;20237;-69
2022/06/25 06:39:32;;;;;;;2.50;1.70;;;20.30;99.90;;;;;;4989231;28;20274;-67
2022/06/25 06:41:58;;;;;;;2.00;1.90;;;20.40;99.90;;;;;;4986735;28;20207;-67
2022/06/25 06:44:23;;;;;;;3.13;2.10;;;20.60;99.90;;;;;;4988166;28;20184;-67
2022/06/25 06:46:49;;;;;;;1.93;1.83;;;20.60;99.90;;;;;;4989802;28;20191;-69
2022/06/25 06:49:14;;;;;;;2.47;1.60;;;20.70;99.90;;;;;;4984027;28;20191;-69
2022/06/25 06:51:40;;;;;;;2.97;2.20;;;20.80;99.90;;;;;;4988620;28;20211;-69
2022/06/25 06:54:06;;;;;;;2.40;1.80;;;20.80;99.90;;;;;;4987158;28;20859;-70
2022/06/25 06:56:31;;;;;;;2.73;1.70;;;20.90;99.90;;;;;;4986862;28;20206;-74
2022/06/25 06:58:57;;;;;;;2.00;1.90;;;21.10;99.90;;;;;;5021899;28;20449;-73
2022/06/25 07:01:23;;;;;;;1.70;1.60;;;21.30;99.90;;;;;;4989667;28;20207;-73
2022/06/25 07:03:48;;;;;;;2.50;1.80;;;21.50;99.90;;;;;;4983796;28;20194;-74
2022/06/25 07:06:14;;;;;;;2.43;1.60;;;21.90;99.90;;;;;;4986277;28;20180;-74
2022/06/25 07:08:40;;;;;;;5.40;1.90;;;22.60;99.90;;;;;;4985901;28;20247;-69
2022/06/25 07:13:49;;;;;;;2.47;1.90;;;25.80;95.40;;;;;;4986361;28;20209;-69
2022/06/25 07:16:15;;;;;;;1.63;1.50;;;27.30;91.10;;;;;;4985047;28;20446;-70
2022/06/25 07:18:41;;;;;;;1.60;1.50;;;28.80;87.30;;;;;;4989623;28;20726;-70
2022/06/25 07:21:07;;;;;;;1.50;1.40;;;31.40;77.30;;;;;;4983774;28;20485;-71
2022/06/25 07:23:33;;;;;;;1.60;1.50;;;32.90;68.90;;;;;;4990323;28;20234;-71
2022/06/25 07:25:58;;;;;;;3.30;1.70;;;34.50;62.60;;;;;;4990644;28;20190;-72
2022/06/25 07:28:24;;;;;;;1.40;1.30;;;34.50;59.40;;;;;;4991585;28;20191;-70
2022/06/25 07:30:49;;;;;;;1.60;1.50;;;34.20;60.00;;;;;;4993612;28;20649;-72
2022/06/25 07:33:15;;;;;;;1.60;1.40;;;35.10;56.00;;;;;;4993465;28;20194;-70
2022/06/25 07:35:41;;;;;;;1.60;1.40;;;36.20;53.60;;;;;;4993440;28;20198;-71
2022/06/25 07:38:06;;;;;;;1.70;1.60;;;36.70;51.60;;;;;;4992467;28;20191;-70
2022/06/25 07:40:32;;;;;;;1.80;1.70;;;35.20;52.70;;;;;;4992711;28;20236;-70
2022/06/25 07:42:57;;;;;;;2.80;1.60;;;34.60;53.20;;;;;;4994094;28;20820;-71
2022/06/25 07:45:23;;;;;;;1.77;1.67;;;33.10;55.20;;;;;;4992025;28;20211;-71
2022/06/25 07:47:48;;;;;;;1.77;1.67;;;31.30;57.50;;;;;;4993449;28;20176;-71
2022/06/25 07:52:58;;;;;;;1.97;1.87;;;29.20;63.90;;;;;;4988287;28;20307;-69
2022/06/25 07:55:24;;;;;;;1.93;1.70;;;28.90;66.00;;;;;;4992086;28;20446;-68
2022/06/25 07:57:50;;;;;;;1.60;1.50;;;28.50;68.80;;;;;;4990696;28;20222;-69
2022/06/25 08:00:16;;;;;;;1.67;1.57;;;27.60;70.80;;;;;;4989831;28;20684;-69
2022/06/25 08:02:41;;;;;;;1.90;1.80;;;26.80;74.20;;;;;;4987742;28;20230;-69
2022/06/25 08:05:07;;;;;;;2.03;1.83;;;26.70;76.30;;;;;;4993356;28;20445;-69
2022/06/25 08:07:33;;;;;;;2.00;1.80;;;26.30;78.50;;;;;;4982759;28;20206;-69
2022/06/25 08:09:59;;;;;;;2.20;2.00;;;25.90;80.30;;;;;;4988588;28;20760;-69
2022/06/25 08:12:25;;;;;;;1.83;1.73;;;25.60;83.50;;;;;;4990065;28;20438;-69
2022/06/25 08:14:51;;;;;;;3.17;2.43;;;24.90;84.50;;;;;;4995537;28;20195;-69
2022/06/25 08:17:16;;;;;;;3.30;2.20;;;24.80;85.80;;;;;;4991699;28;20545;-69
2022/06/25 08:19:42;;;;;;;2.40;2.20;;;24.70;86.60;;;;;;4988722;28;20531;-68
2022/06/25 08:22:08;;;;;;;1.90;1.80;;;24.50;86.80;;;;;;4987104;28;20199;-68
2022/06/25 08:24:33;;;;;;;2.17;1.97;;;24.50;87.50;;;;;;4989103;28;20537;-69
2022/06/25 08:26:59;;;;;;;2.17;2.07;;;24.20;89.50;;;;;;4985620;28;20244;-69
2022/06/25 08:29:24;;;;;;;2.00;1.90;;;24.80;89.70;;;;;;4991633;28;20661;-69
2022/06/25 08:31:50;;;;;;;2.33;2.10;;;26.10;85.10;;;;;;4993247;28;20210;-69
2022/06/25 08:34:16;;;;;;;1.70;1.60;;;26.30;82.00;;;;;;4987843;28;20189;-69
2022/06/25 08:36:42;;;;;;;1.70;1.60;;;26.60;82.40;;;;;;4991948;28;20980;-69
2022/06/25 08:39:07;;;;;;;2.00;1.77;;;26.20;82.60;;;;;;4991931;28;20655;-69
2022/06/25 08:41:33;;;;;;;1.87;1.77;;;27.00;82.40;;;;;;4984391;28;20270;-69
2022/06/25 08:43:59;;;;;;;2.40;2.20;;;29.50;77.10;;;;;;4987377;28;20222;-70
2022/06/25 08:46:24;;;;;;;2.17;2.07;;;32.60;67.60;;;;;;4992829;28;20237;-70
2022/06/25 08:48:50;;;;;;;2.10;1.50;;;34.80;59.00;;;;;;4994409;28;20194;-70
2022/06/25 08:51:20;;;;;;;1.57;1.47;;;36.90;53.80;;;;;;4992969;28;20218;-73
2022/06/25 08:53:47;;;;;;;1.73;1.63;;;37.00;50.90;;;;;;4992382;28;20871;-70
2022/06/25 08:56:14;;;;;;;2.07;1.80;;;36.90;50.30;;;;;;4995556;28;20473;-70
2022/06/25 08:58:44;;;;;;;2.00;1.80;;;36.90;50.10;;;;;;4990803;28;20854;-72
2022/06/25 09:01:09;;;;;;;1.70;1.60;;;38.00;47.10;;;;;;4994657;28;20504;-70
2022/06/25 09:03:35;;;;;;;1.93;1.73;;;37.30;45.80;;;;;;4985384;28;20475;-69
2022/06/25 09:06:16;;;;;;;1.60;1.50;;;35.40;49.10;;;;;;4991782;28;20187;-70
2022/06/25 09:08:43;;;;;;;2.43;2.13;;;34.20;50.30;;;;;;4991118;28;20198;-68
2022/06/25 09:11:09;;;;;;;2.00;1.90;;;33.10;52.70;;;;;;4991406;28;20533;-68
2022/06/25 09:13:35;;;;;;;2.50;2.23;;;31.90;55.00;;;;;;4987574;28;20453;-71
2022/06/25 09:16:00;;;;;;;3.07;2.23;;;30.50;58.30;;;;;;4982903;28;20192;-68
2022/06/25 09:18:26;;;;;;;2.00;1.80;;;29.40;60.70;;;;;;4986018;28;20652;-67
2022/06/25 09:21:00;;;;;;;1.83;1.73;;;29.10;62.40;;;;;;4987141;28;20215;-70
2022/06/25 09:23:29;;;;;;;4.23;2.10;;;30.70;60.60;;;;;;4980126;28;20214;-69
2022/06/25 09:26:06;;;;;;;5.60;1.93;;;31.90;57.30;;;;;;4990355;28;20429;-68
2022/06/25 09:28:34;;;;;;;2.00;1.77;;;32.20;56.40;;;;;;4994597;28;20451;-68
2022/06/25 09:31:02;;;;;;;2.13;1.73;;;32.00;55.20;;;;;;4985889;28;20975;-68
2022/06/25 09:33:29;;;;;;;1.57;1.47;;;31.10;55.00;;;;;;4989705;28;20458;-68
2022/06/25 09:35:55;;;;;;;1.80;1.70;;;29.80;58.00;;;;;;4982961;28;20591;-68
2022/06/25 09:38:22;;;;;;;1.60;1.50;;;29.20;58.60;;;;;;4988851;28;20439;-68
2022/06/25 09:40:57;;;;;;;1.40;1.30;;;29.00;59.70;;;;;;4987275;28;20477;-67
2022/06/25 09:43:47;;;;;;;1.87;1.77;;;29.30;58.20;;;;;;4978576;28;20472;-65
2022/06/25 09:46:13;;;;;;;1.77;1.67;;;29.00;59.40;;;;;;4986118;28;20978;-68
2022/06/25 09:48:41;;;;;;;4.10;1.90;;;28.60;62.30;;;;;;4985301;28;20454;-68
2022/06/25 09:51:13;;;;;;;1.80;1.70;;;29.90;60.20;;;;;;4990789;28;20511;-68
2022/06/25 09:53:51;;;;;;;2.00;1.90;;;31.80;56.80;;;;;;4983706;28;20460;-68
2022/06/25 09:56:21;;;;;;;2.10;1.57;;;33.40;52.90;;;;;;4988121;28;20444;-68
2022/06/25 09:58:48;;;;;;;3.40;1.80;;;33.50;52.50;;;;;;4990555;28;20434;-69
2022/06/25 10:01:19;;;;;;;2.00;1.77;;;34.50;50.90;;;;;;4983371;28;20475;-69
2022/06/25 10:03:46;;;;;;;1.90;1.73;;;35.10;49.00;;;;;;4982478;28;20471;-69
2022/06/25 10:06:17;;;;;;;1.50;1.40;;;35.20;48.80;;;;;;4989884;28;20482;-69
2022/06/25 10:08:58;;;;;;;1.83;1.73;;;34.20;50.30;;;;;;4989576;28;20438;-69
2022/06/25 10:11:27;;;;;;;1.73;1.63;;;34.90;49.10;;;;;;4984576;28;20495;-69
2022/06/25 10:13:53;;;;;;;2.13;1.90;;;35.60;47.10;;;;;;4988117;28;20875;-69
2022/06/25 10:16:20;;;;;;;2.07;1.97;;;35.90;46.40;;;;;;4986936;28;20453;-69
2022/06/25 10:18:48;;;;;;;3.90;2.00;;;36.80;45.90;;;;;;4987261;28;20446;-69
2022/06/25 10:21:14;;;;;;;1.77;1.63;;;37.30;44.90;;;;;;4991343;28;20467;-70
2022/06/25 10:23:41;;;;;;;1.90;1.70;;;37.00;44.10;;;;;;4988165;28;20647;-69
2022/06/25 10:26:08;;;;;;;2.20;1.60;;;36.00;45.60;;;;;;4988049;28;20863;-69
2022/06/25 10:28:35;;;;;;;2.57;1.70;;;36.40;44.60;;;;;;4990148;28;20427;-69
2022/06/25 10:31:05;;;;;;;1.73;1.63;;;36.70;45.40;;;;;;4987775;28;20901;-69
2022/06/25 10:33:59;;;;;;;2.30;1.90;;;36.20;44.10;;;;;;4982706;28;20535;-68
2022/06/25 10:36:47;;;;;;;2.30;2.10;;;34.70;45.90;;;;;;4984483;28;20450;-68
2022/06/25 10:39:22;;;;;;;2.00;1.90;;;31.90;50.20;;;;;;4986806;28;20520;-69
2022/06/25 10:45:06;;;;;;;2.80;2.00;;;34.80;46.50;;;;;;4981494;28;20510;-69
2022/06/25 10:47:43;;;;;;;1.80;1.70;;;35.00;45.50;;;;;;4983415;28;21040;-70
2022/06/25 10:50:21;;;;;;;1.83;1.60;;;36.40;44.40;;;;;;4990035;28;20973;-69
2022/06/25 10:53:02;;;;;;;1.80;1.70;;;36.70;42.70;;;;;;4986966;28;20458;-69
2022/06/25 10:55:48;;;;;;;2.33;2.03;;;36.70;42.90;;;;;;4982800;28;20455;-69
2022/06/25 10:58:16;;;;;;;1.60;1.50;;;37.20;42.50;;;;;;4976752;28;20508;-70
2022/06/25 11:00:49;;;;;;;5.20;2.00;;;37.40;40.60;;;;;;4976174;28;20490;-70
2022/06/25 11:03:35;;;;;;;2.33;1.90;;;37.20;39.90;;;;;;4981050;28;20466;-70
2022/06/25 11:06:18;;;;;;;1.80;1.70;;;37.20;41.50;;;;;;4984103;28;20446;-70
2022/06/25 11:08:45;;;;;;;1.70;1.60;;;37.00;40.10;;;;;;4991253;28;20438;-69
2022/06/25 11:11:12;;;;;;;2.90;1.90;;;35.90;41.60;;;;;;4986450;28;20459;-70
2022/06/25 11:13:41;;;;;;;1.70;1.60;;;37.80;41.60;;;;;;4990452;28;20446;-70
2022/06/25 11:16:15;;;;;;;1.80;1.70;;;38.80;39.70;;;;;;4992197;28;20481;-70
2022/06/25 11:18:48;;;;;;;2.03;1.70;;;37.60;39.00;;;;;;4990300;28;20449;-70
2022/06/25 11:21:45;;;;;;;1.90;1.80;;;37.10;39.20;;;;;;4990947;28;20487;-70
2022/06/25 11:24:30;;;;;;;1.77;1.40;;;37.10;39.40;;;;;;4970124;28;20944;-70
2022/06/25 11:29:52;;;;;;;1.83;1.50;;;37.50;39.10;;;;;;4991865;28;20449;-70
2022/06/25 11:32:23;;;;;;;1.80;1.70;;;37.20;38.70;;;;;;4993338;28;20520;-72
2022/06/25 11:34:53;;;;;;;2.03;1.83;;;36.90;40.70;;;;;;4990071;28;20854;-70
2022/06/25 11:37:19;;;;;;;2.10;1.90;;;36.80;40.00;;;;;;4992985;28;20850;-69
2022/06/25 11:39:46;;;;;;;1.70;1.60;;;36.40;40.20;;;;;;4989079;28;20453;-70
2022/06/25 11:42:13;;;;;;;2.80;2.30;;;36.00;40.60;;;;;;4988592;28;20465;-69
2022/06/25 11:44:39;;;;;;;4.30;1.90;;;34.80;41.80;;;;;;4991207;28;20505;-68
2022/06/25 11:47:04;;;;;;;1.83;1.73;;;34.40;43.40;;;;;;4989430;28;20438;-69
2022/06/25 11:49:41;;;;;;;1.90;1.80;;;33.10;44.90;;;;;;4990730;28;20254;-68
2022/06/25 11:52:08;;;;;;;1.90;1.80;;;32.40;46.10;;;;;;4993277;28;20290;-70
2022/06/25 11:54:36;;;;;;;2.00;1.90;;;32.10;47.20;;;;;;4988562;28;20469;-70
2022/06/25 11:57:05;;;;;;;2.07;1.97;;;31.60;47.80;;;;;;4990813;28;20446;-69
2022/06/25 11:59:33;;;;;;;1.97;1.80;;;30.50;48.90;;;;;;4986183;28;21045;-70
2022/06/25 12:01:59;;;;;;;3.20;2.20;;;30.10;48.90;;;;;;4988035;28;20462;-73
2022/06/25 12:04:26;;;;;;;1.60;1.50;;;29.70;50.00;;;;;;4989642;28;21100;-72
2022/06/25 12:06:52;;;;;;;1.90;1.70;;;29.50;50.70;;;;;;4989068;28;20448;-69
2022/06/25 12:09:20;;;;;;;1.83;1.73;;;29.10;51.20;;;;;;4989433;28;20866;-70
2022/06/25 12:11:55;;;;;;;2.43;1.60;;;28.70;52.30;;;;;;4987292;28;20836;-69
2022/06/25 12:14:23;;;;;;;2.10;1.90;;;28.30;52.60;;;;;;4996691;28;20831;-69
2022/06/25 12:16:49;;;;;;;2.80;1.87;;;28.30;54.10;;;;;;4989940;28;20543;-69
2022/06/25 12:19:16;;;;;;;1.77;1.67;;;28.30;53.30;;;;;;4988523;28;20791;-68
2022/06/25 12:21:43;;;;;;;1.67;1.57;;;28.20;53.10;;;;;;4995491;28;20565;-70
2022/06/25 12:24:12;;;;;;;2.90;2.30;;;27.90;53.90;;;;;;4990884;28;20505;-70
2022/06/25 12:26:41;;;;;;;2.00;1.90;;;27.80;54.50;;;;;;4991508;28;20446;-69
2022/06/25 12:29:15;;;;;;;1.70;1.60;;;27.80;55.10;;;;;;4992944;28;20450;-69
2022/06/25 12:31:42;;;;;;;2.20;2.00;;;27.80;54.90;;;;;;4985292;28;20848;-69
2022/06/25 12:34:09;;;;;;;4.60;3.00;;;27.90;55.30;;;;;;4987552;28;20458;-70
2022/06/25 12:36:39;;;;;;;2.13;1.97;;;27.90;54.90;;;;;;4991681;28;20497;-69
2022/06/25 12:39:27;;;;;;;1.60;1.50;;;27.90;55.20;;;;;;4984560;28;20446;-69
2022/06/25 12:41:54;;;;;;;2.93;1.87;;;28.00;53.70;;;;;;4990348;28;21909;-70
2022/06/25 12:44:19;;;;;;;1.83;1.73;;;27.90;54.20;;;;;;4987974;28;20549;-69
2022/06/25 12:47:02;;;;;;;1.70;1.60;;;27.80;55.00;;;;;;4991177;28;20564;-69
2022/06/25 12:49:52;;;;;;;2.07;1.77;;;27.50;53.60;;;;;;4985838;28;20819;-70
2022/06/25 12:52:26;;;;;;;1.83;1.73;;;27.50;53.90;;;;;;4991734;28;20435;-70
2022/06/25 12:54:54;;;;;;;3.23;3.03;;;27.50;54.50;;;;;;4991682;28;20458;-70
2022/06/25 12:57:20;;;;;;;1.70;1.60;;;27.30;55.20;;;;;;4986422;28;20446;-69
2022/06/25 12:59:47;;;;;;;2.13;1.60;;;27.30;55.00;;;;;;4986853;28;20460;-69
2022/06/25 13:02:13;;;;;;;1.80;1.70;;;27.30;55.80;;;;;;4989799;28;20434;-70
2022/06/25 13:04:38;;;;;;;1.50;1.40;;;27.30;55.20;;;;;;4986329;28;20450;-69
2022/06/25 13:07:04;;;;;;;1.90;1.37;;;27.40;54.90;;;;;;4988819;28;20203;-69